sensor_id;sensor_type;location;lat;lon;timestamp;P1;durP1;ratioP1;P2;durP2;ratioP2
38994;SDS011;24769;18.712;99.000;2023-04-21T00:01:13;113.60;;;113.60;;
38994;SDS011;24769;18.712;99.000;2023-04-21T00:03:40;115.40;;;114.60;;
38994;SDS011;24769;18.712;99.000;2023-04-21T00:06:08;118.80;;;118.40;;
38994;SDS011;24769;18.712;99.000;2023-04-21T00:08:35;117.40;;;116.00;;
38994;SDS011;24769;18.712;99.000;2023-04-21T00:11:05;112.20;;;109.80;;
38994;SDS011;24769;18.712;99.000;2023-04-21T00:13:32;112.60;;;109.80;;
38994;SDS011;24769;18.712;99.000;2023-04-21T00:16:00;105.00;;;104.60;;
38994;SDS011;24769;18.712;99.000;2023-04-21T00:18:27;105.20;;;105.00;;
38994;SDS011;24769;18.712;99.000;2023-04-21T00:20:54;112.00;;;110.80;;
38994;SDS011;24769;18.712;99.000;2023-04-21T00:23:20;102.80;;;102.20;;
38994;SDS011;24769;18.712;99.000;2023-04-21T00:25:47;110.20;;;107.60;;
38994;SDS011;24769;18.712;99.000;2023-04-21T00:28:13;108.40;;;107.40;;
38994;SDS011;24769;18.712;99.000;2023-04-21T00:30:40;110.20;;;108.40;;
38994;SDS011;24769;18.712;99.000;2023-04-21T00:33:07;108.60;;;108.60;;
38994;SDS011;24769;18.712;99.000;2023-04-21T00:35:33;111.00;;;111.00;;
38994;SDS011;24769;18.712;99.000;2023-04-21T00:38:00;108.00;;;106.80;;
38994;SDS011;24769;18.712;99.000;2023-04-21T00:40:26;116.80;;;114.00;;
38994;SDS011;24769;18.712;99.000;2023-04-21T00:42:53;112.00;;;111.40;;
38994;SDS011;24769;18.712;99.000;2023-04-21T00:45:19;122.20;;;120.80;;
38994;SDS011;24769;18.712;99.000;2023-04-21T00:47:46;103.80;;;103.80;;
38994;SDS011;24769;18.712;99.000;2023-04-21T00:50:13;106.40;;;106.00;;
38994;SDS011;24769;18.712;99.000;2023-04-21T00:52:40;107.20;;;107.20;;
38994;SDS011;24769;18.712;99.000;2023-04-21T00:55:11;108.00;;;107.60;;
38994;SDS011;24769;18.712;99.000;2023-04-21T00:57:38;106.80;;;106.80;;
38994;SDS011;24769;18.712;99.000;2023-04-21T01:00:05;113.80;;;111.40;;
38994;SDS011;24769;18.712;99.000;2023-04-21T01:02:33;107.80;;;107.60;;
38994;SDS011;24769;18.712;99.000;2023-04-21T01:05:03;108.40;;;108.00;;
38994;SDS011;24769;18.712;99.000;2023-04-21T01:07:33;107.40;;;107.00;;
38994;SDS011;24769;18.712;99.000;2023-04-21T01:10:00;106.20;;;104.80;;
38994;SDS011;24769;18.712;99.000;2023-04-21T01:12:28;99.75;;;99.75;;
38994;SDS011;24769;18.712;99.000;2023-04-21T01:14:55;103.25;;;102.00;;
38994;SDS011;24769;18.712;99.000;2023-04-21T01:17:21;100.75;;;97.75;;
38994;SDS011;24769;18.712;99.000;2023-04-21T01:19:48;101.75;;;101.50;;
38994;SDS011;24769;18.712;99.000;2023-04-21T01:22:15;108.50;;;107.50;;
38994;SDS011;24769;18.712;99.000;2023-04-21T01:24:46;100.50;;;100.50;;
38994;SDS011;24769;18.712;99.000;2023-04-21T01:27:14;95.75;;;95.75;;
38994;SDS011;24769;18.712;99.000;2023-04-21T01:29:46;99.75;;;99.75;;
38994;SDS011;24769;18.712;99.000;2023-04-21T01:32:15;104.75;;;104.50;;
38994;SDS011;24769;18.712;99.000;2023-04-21T01:34:47;103.25;;;101.25;;
38994;SDS011;24769;18.712;99.000;2023-04-21T01:37:16;98.50;;;98.00;;
38994;SDS011;24769;18.712;99.000;2023-04-21T01:39:45;97.00;;;96.00;;
38994;SDS011;24769;18.712;99.000;2023-04-21T01:42:19;99.25;;;99.00;;
38994;SDS011;24769;18.712;99.000;2023-04-21T01:44:47;97.50;;;93.00;;
38994;SDS011;24769;18.712;99.000;2023-04-21T01:47:15;90.50;;;90.50;;
38994;SDS011;24769;18.712;99.000;2023-04-21T01:49:42;101.25;;;101.25;;
38994;SDS011;24769;18.712;99.000;2023-04-21T01:52:09;99.50;;;99.25;;
38994;SDS011;24769;18.712;99.000;2023-04-21T01:54:35;94.25;;;94.25;;
38994;SDS011;24769;18.712;99.000;2023-04-21T01:57:02;96.75;;;96.75;;
38994;SDS011;24769;18.712;99.000;2023-04-21T01:59:29;94.25;;;93.25;;
38994;SDS011;24769;18.712;99.000;2023-04-21T02:01:56;99.00;;;99.00;;
38994;SDS011;24769;18.712;99.000;2023-04-21T02:04:22;95.50;;;94.50;;
38994;SDS011;24769;18.712;99.000;2023-04-21T02:06:49;99.25;;;98.50;;
38994;SDS011;24769;18.712;99.000;2023-04-21T02:09:15;93.00;;;93.00;;
38994;SDS011;24769;18.712;99.000;2023-04-21T02:11:42;92.25;;;91.75;;
38994;SDS011;24769;18.712;99.000;2023-04-21T02:14:08;92.75;;;92.00;;
38994;SDS011;24769;18.712;99.000;2023-04-21T02:16:35;95.50;;;94.50;;
38994;SDS011;24769;18.712;99.000;2023-04-21T02:19:01;95.00;;;92.67;;
38994;SDS011;24769;18.712;99.000;2023-04-21T02:21:28;99.75;;;98.75;;
38994;SDS011;24769;18.712;99.000;2023-04-21T02:23:55;87.25;;;87.00;;
38994;SDS011;24769;18.712;99.000;2023-04-21T02:26:21;93.00;;;93.00;;
38994;SDS011;24769;18.712;99.000;2023-04-21T02:28:48;92.25;;;91.50;;
38994;SDS011;24769;18.712;99.000;2023-04-21T02:31:16;93.25;;;93.25;;
38994;SDS011;24769;18.712;99.000;2023-04-21T02:33:43;97.25;;;97.00;;
38994;SDS011;24769;18.712;99.000;2023-04-21T02:36:10;96.75;;;95.00;;
38994;SDS011;24769;18.712;99.000;2023-04-21T02:38:36;97.75;;;96.75;;
38994;SDS011;24769;18.712;99.000;2023-04-21T02:41:03;93.00;;;91.75;;
38994;SDS011;24769;18.712;99.000;2023-04-21T02:43:29;89.25;;;89.25;;
38994;SDS011;24769;18.712;99.000;2023-04-21T02:45:56;96.75;;;96.75;;
38994;SDS011;24769;18.712;99.000;2023-04-21T02:48:23;94.00;;;94.00;;
38994;SDS011;24769;18.712;99.000;2023-04-21T02:50:49;97.50;;;96.50;;
38994;SDS011;24769;18.712;99.000;2023-04-21T02:53:18;93.00;;;91.25;;
38994;SDS011;24769;18.712;99.000;2023-04-21T02:55:45;92.50;;;92.25;;
38994;SDS011;24769;18.712;99.000;2023-04-21T02:58:11;96.50;;;96.25;;
38994;SDS011;24769;18.712;99.000;2023-04-21T03:00:39;89.75;;;89.25;;
38994;SDS011;24769;18.712;99.000;2023-04-21T03:03:05;86.25;;;86.25;;
38994;SDS011;24769;18.712;99.000;2023-04-21T03:05:32;89.75;;;88.75;;
38994;SDS011;24769;18.712;99.000;2023-04-21T03:07:59;94.25;;;94.25;;
38994;SDS011;24769;18.712;99.000;2023-04-21T03:10:25;86.75;;;86.00;;
38994;SDS011;24769;18.712;99.000;2023-04-21T03:12:52;87.25;;;86.50;;
38994;SDS011;24769;18.712;99.000;2023-04-21T03:15:18;91.00;;;90.25;;
38994;SDS011;24769;18.712;99.000;2023-04-21T03:17:45;89.25;;;88.50;;
38994;SDS011;24769;18.712;99.000;2023-04-21T03:20:11;91.00;;;91.00;;
38994;SDS011;24769;18.712;99.000;2023-04-21T03:22:38;87.75;;;87.75;;
38994;SDS011;24769;18.712;99.000;2023-04-21T03:25:05;91.50;;;90.50;;
38994;SDS011;24769;18.712;99.000;2023-04-21T03:27:32;90.00;;;89.25;;
38994;SDS011;24769;18.712;99.000;2023-04-21T03:29:59;82.75;;;82.75;;
38994;SDS011;24769;18.712;99.000;2023-04-21T03:32:26;88.00;;;88.00;;
38994;SDS011;24769;18.712;99.000;2023-04-21T03:34:52;83.80;;;83.40;;
38994;SDS011;24769;18.712;99.000;2023-04-21T03:37:19;94.00;;;93.00;;
38994;SDS011;24769;18.712;99.000;2023-04-21T03:39:45;91.60;;;91.60;;
38994;SDS011;24769;18.712;99.000;2023-04-21T03:42:12;83.80;;;83.80;;
38994;SDS011;24769;18.712;99.000;2023-04-21T03:44:38;76.20;;;73.40;;
38994;SDS011;24769;18.712;99.000;2023-04-21T03:47:05;79.50;;;79.25;;
38994;SDS011;24769;18.712;99.000;2023-04-21T03:49:34;78.25;;;76.25;;
38994;SDS011;24769;18.712;99.000;2023-04-21T03:52:03;80.40;;;80.20;;
38994;SDS011;24769;18.712;99.000;2023-04-21T03:54:29;86.20;;;85.60;;
38994;SDS011;24769;18.712;99.000;2023-04-21T03:56:56;81.40;;;80.40;;
38994;SDS011;24769;18.712;99.000;2023-04-21T03:59:22;82.80;;;82.40;;
38994;SDS011;24769;18.712;99.000;2023-04-21T04:01:49;86.00;;;84.80;;
38994;SDS011;24769;18.712;99.000;2023-04-21T04:04:15;88.20;;;88.20;;
38994;SDS011;24769;18.712;99.000;2023-04-21T04:06:42;75.40;;;71.20;;
38994;SDS011;24769;18.712;99.000;2023-04-21T04:09:08;79.80;;;79.40;;
38994;SDS011;24769;18.712;99.000;2023-04-21T04:11:35;80.80;;;80.80;;
38994;SDS011;24769;18.712;99.000;2023-04-21T04:14:01;76.80;;;74.60;;
38994;SDS011;24769;18.712;99.000;2023-04-21T04:16:28;81.00;;;80.80;;
38994;SDS011;24769;18.712;99.000;2023-04-21T04:18:55;77.20;;;76.00;;
38994;SDS011;24769;18.712;99.000;2023-04-21T04:21:22;83.20;;;82.40;;
38994;SDS011;24769;18.712;99.000;2023-04-21T04:23:51;77.20;;;75.20;;
38994;SDS011;24769;18.712;99.000;2023-04-21T04:26:18;81.20;;;80.80;;
38994;SDS011;24769;18.712;99.000;2023-04-21T04:28:46;77.60;;;76.60;;
38994;SDS011;24769;18.712;99.000;2023-04-21T04:31:13;76.80;;;74.80;;
38994;SDS011;24769;18.712;99.000;2023-04-21T04:33:41;76.80;;;74.80;;
38994;SDS011;24769;18.712;99.000;2023-04-21T04:36:08;80.20;;;79.40;;
38994;SDS011;24769;18.712;99.000;2023-04-21T04:38:36;82.00;;;81.20;;
38994;SDS011;24769;18.712;99.000;2023-04-21T04:41:03;79.00;;;78.20;;
38994;SDS011;24769;18.712;99.000;2023-04-21T04:43:30;79.20;;;79.20;;
38994;SDS011;24769;18.712;99.000;2023-04-21T04:46:07;79.20;;;78.80;;
38994;SDS011;24769;18.712;99.000;2023-04-21T04:48:35;81.00;;;76.80;;
38994;SDS011;24769;18.712;99.000;2023-04-21T04:51:02;78.00;;;76.40;;
38994;SDS011;24769;18.712;99.000;2023-04-21T04:53:28;76.00;;;72.80;;
38994;SDS011;24769;18.712;99.000;2023-04-21T04:55:55;77.80;;;77.20;;
38994;SDS011;24769;18.712;99.000;2023-04-21T04:58:23;77.80;;;77.00;;
38994;SDS011;24769;18.712;99.000;2023-04-21T05:00:50;77.60;;;75.80;;
38994;SDS011;24769;18.712;99.000;2023-04-21T05:03:16;79.40;;;79.20;;
38994;SDS011;24769;18.712;99.000;2023-04-21T05:05:43;75.60;;;73.40;;
38994;SDS011;24769;18.712;99.000;2023-04-21T05:08:10;76.20;;;73.80;;
38994;SDS011;24769;18.712;99.000;2023-04-21T05:10:36;77.00;;;74.80;;
38994;SDS011;24769;18.712;99.000;2023-04-21T05:13:03;78.60;;;78.00;;
38994;SDS011;24769;18.712;99.000;2023-04-21T05:15:29;78.00;;;76.80;;
38994;SDS011;24769;18.712;99.000;2023-04-21T05:17:58;77.60;;;75.40;;
38994;SDS011;24769;18.712;99.000;2023-04-21T05:20:25;76.00;;;72.60;;
38994;SDS011;24769;18.712;99.000;2023-04-21T05:22:52;77.20;;;75.00;;
38994;SDS011;24769;18.712;99.000;2023-04-21T05:25:18;79.20;;;79.20;;
38994;SDS011;24769;18.712;99.000;2023-04-21T05:27:45;76.60;;;73.80;;
38994;SDS011;24769;18.712;99.000;2023-04-21T05:30:12;77.00;;;75.80;;
38994;SDS011;24769;18.712;99.000;2023-04-21T05:32:39;76.80;;;73.80;;
38994;SDS011;24769;18.712;99.000;2023-04-21T05:35:05;77.60;;;77.20;;
38994;SDS011;24769;18.712;99.000;2023-04-21T05:37:32;77.60;;;75.00;;
38994;SDS011;24769;18.712;99.000;2023-04-21T05:39:59;76.60;;;74.20;;
38994;SDS011;24769;18.712;99.000;2023-04-21T05:42:25;78.00;;;77.00;;
38994;SDS011;24769;18.712;99.000;2023-04-21T05:44:52;76.00;;;73.20;;
38994;SDS011;24769;18.712;99.000;2023-04-21T05:47:19;78.00;;;76.60;;
38994;SDS011;24769;18.712;99.000;2023-04-21T05:49:45;77.20;;;75.20;;
38994;SDS011;24769;18.712;99.000;2023-04-21T05:52:14;77.80;;;76.80;;
38994;SDS011;24769;18.712;99.000;2023-04-21T05:54:42;75.60;;;72.40;;
38994;SDS011;24769;18.712;99.000;2023-04-21T05:57:08;77.60;;;75.60;;
38994;SDS011;24769;18.712;99.000;2023-04-21T05:59:35;76.00;;;73.40;;
38994;SDS011;24769;18.712;99.000;2023-04-21T06:02:01;75.60;;;72.40;;
38994;SDS011;24769;18.712;99.000;2023-04-21T06:04:28;75.80;;;72.60;;
38994;SDS011;24769;18.712;99.000;2023-04-21T06:06:55;75.80;;;72.60;;
38994;SDS011;24769;18.712;99.000;2023-04-21T06:09:21;74.80;;;70.60;;
38994;SDS011;24769;18.712;99.000;2023-04-21T06:11:48;76.20;;;73.40;;
38994;SDS011;24769;18.712;99.000;2023-04-21T06:14:15;73.80;;;67.80;;
38994;SDS011;24769;18.712;99.000;2023-04-21T06:16:41;72.60;;;67.00;;
38994;SDS011;24769;18.712;99.000;2023-04-21T06:19:08;76.80;;;74.40;;
38994;SDS011;24769;18.712;99.000;2023-04-21T06:21:34;73.20;;;67.80;;
38994;SDS011;24769;18.712;99.000;2023-04-21T06:24:01;74.20;;;69.40;;
38994;SDS011;24769;18.712;99.000;2023-04-21T06:26:27;72.60;;;67.20;;
38994;SDS011;24769;18.712;99.000;2023-04-21T06:28:55;76.80;;;74.00;;
38994;SDS011;24769;18.712;99.000;2023-04-21T06:31:21;74.80;;;70.20;;
38994;SDS011;24769;18.712;99.000;2023-04-21T06:33:48;76.80;;;73.00;;
38994;SDS011;24769;18.712;99.000;2023-04-21T06:36:14;74.80;;;70.60;;
38994;SDS011;24769;18.712;99.000;2023-04-21T06:38:41;74.80;;;71.20;;
38994;SDS011;24769;18.712;99.000;2023-04-21T06:41:10;74.80;;;70.60;;
38994;SDS011;24769;18.712;99.000;2023-04-21T06:43:37;77.40;;;75.60;;
38994;SDS011;24769;18.712;99.000;2023-04-21T06:46:03;76.80;;;74.80;;
38994;SDS011;24769;18.712;99.000;2023-04-21T06:48:30;76.60;;;74.60;;
38994;SDS011;24769;18.712;99.000;2023-04-21T06:50:56;76.00;;;72.80;;
38994;SDS011;24769;18.712;99.000;2023-04-21T06:53:24;77.00;;;74.00;;
38994;SDS011;24769;18.712;99.000;2023-04-21T06:55:51;75.60;;;72.00;;
38994;SDS011;24769;18.712;99.000;2023-04-21T06:58:18;76.80;;;74.80;;
38994;SDS011;24769;18.712;99.000;2023-04-21T07:00:45;75.00;;;70.40;;
38994;SDS011;24769;18.712;99.000;2023-04-21T07:03:12;76.60;;;74.00;;
38994;SDS011;24769;18.712;99.000;2023-04-21T07:05:40;74.80;;;71.40;;
38994;SDS011;24769;18.712;99.000;2023-04-21T07:08:07;75.60;;;71.80;;
38994;SDS011;24769;18.712;99.000;2023-04-21T07:10:33;76.00;;;72.80;;
38994;SDS011;24769;18.712;99.000;2023-04-21T07:13:02;73.80;;;68.40;;
38994;SDS011;24769;18.712;99.000;2023-04-21T07:15:31;73.40;;;69.00;;
38994;SDS011;24769;18.712;99.000;2023-04-21T07:17:59;72.00;;;65.60;;
38994;SDS011;24769;18.712;99.000;2023-04-21T07:20:25;70.60;;;62.80;;
38994;SDS011;24769;18.712;99.000;2023-04-21T07:22:52;74.80;;;70.60;;
38994;SDS011;24769;18.712;99.000;2023-04-21T07:25:18;71.20;;;62.60;;
38994;SDS011;24769;18.712;99.000;2023-04-21T07:27:45;69.00;;;60.40;;
38994;SDS011;24769;18.712;99.000;2023-04-21T07:30:11;70.40;;;63.00;;
38994;SDS011;24769;18.712;99.000;2023-04-21T07:32:38;66.80;;;57.60;;
38994;SDS011;24769;18.712;99.000;2023-04-21T07:35:05;71.00;;;64.20;;
38994;SDS011;24769;18.712;99.000;2023-04-21T07:37:32;71.20;;;64.00;;
38994;SDS011;24769;18.712;99.000;2023-04-21T07:39:58;70.20;;;62.60;;
38994;SDS011;24769;18.712;99.000;2023-04-21T07:42:25;74.40;;;69.40;;
38994;SDS011;24769;18.712;99.000;2023-04-21T07:44:51;72.40;;;66.20;;
38994;SDS011;24769;18.712;99.000;2023-04-21T07:47:20;71.60;;;65.20;;
38994;SDS011;24769;18.712;99.000;2023-04-21T07:49:46;69.40;;;60.80;;
38994;SDS011;24769;18.712;99.000;2023-04-21T07:52:13;73.60;;;67.80;;
38994;SDS011;24769;18.712;99.000;2023-04-21T07:54:39;73.00;;;68.00;;
38994;SDS011;24769;18.712;99.000;2023-04-21T07:57:06;73.40;;;68.00;;
38994;SDS011;24769;18.712;99.000;2023-04-21T07:59:32;73.00;;;67.80;;
38994;SDS011;24769;18.712;99.000;2023-04-21T08:02:00;72.00;;;65.40;;
38994;SDS011;24769;18.712;99.000;2023-04-21T08:04:26;71.80;;;65.60;;
38994;SDS011;24769;18.712;99.000;2023-04-21T08:06:53;66.40;;;56.60;;
38994;SDS011;24769;18.712;99.000;2023-04-21T08:09:19;66.40;;;56.80;;
38994;SDS011;24769;18.712;99.000;2023-04-21T08:11:46;70.20;;;62.60;;
38994;SDS011;24769;18.712;99.000;2023-04-21T08:14:13;72.80;;;66.40;;
38994;SDS011;24769;18.712;99.000;2023-04-21T08:16:39;71.60;;;65.60;;
38994;SDS011;24769;18.712;99.000;2023-04-21T08:19:07;71.60;;;64.80;;
38994;SDS011;24769;18.712;99.000;2023-04-21T08:21:34;69.00;;;60.40;;
38994;SDS011;24769;18.712;99.000;2023-04-21T08:24:01;70.80;;;62.60;;
38994;SDS011;24769;18.712;99.000;2023-04-21T08:26:27;70.60;;;62.60;;
38994;SDS011;24769;18.712;99.000;2023-04-21T08:28:54;71.00;;;63.40;;
38994;SDS011;24769;18.712;99.000;2023-04-21T08:31:21;72.60;;;62.60;;
38994;SDS011;24769;18.712;99.000;2023-04-21T08:33:48;64.20;;;52.80;;
38994;SDS011;24769;18.712;99.000;2023-04-21T08:36:14;70.80;;;63.60;;
38994;SDS011;24769;18.712;99.000;2023-04-21T08:38:42;65.40;;;54.80;;
38994;SDS011;24769;18.712;99.000;2023-04-21T08:41:09;70.80;;;63.40;;
38994;SDS011;24769;18.712;99.000;2023-04-21T08:43:35;67.00;;;56.80;;
38994;SDS011;24769;18.712;99.000;2023-04-21T08:46:05;66.60;;;56.80;;
38994;SDS011;24769;18.712;99.000;2023-04-21T08:48:34;70.40;;;63.00;;
38994;SDS011;24769;18.712;99.000;2023-04-21T08:51:02;71.00;;;64.00;;
38994;SDS011;24769;18.712;99.000;2023-04-21T08:53:31;69.00;;;60.20;;
38994;SDS011;24769;18.712;99.000;2023-04-21T08:55:58;67.20;;;57.40;;
38994;SDS011;24769;18.712;99.000;2023-04-21T08:58:24;67.60;;;58.00;;
38994;SDS011;24769;18.712;99.000;2023-04-21T09:00:50;69.00;;;59.80;;
38994;SDS011;24769;18.712;99.000;2023-04-21T09:03:21;67.00;;;57.40;;
38994;SDS011;24769;18.712;99.000;2023-04-21T09:06:01;67.80;;;58.20;;
38994;SDS011;24769;18.712;99.000;2023-04-21T09:08:29;67.20;;;58.20;;
38994;SDS011;24769;18.712;99.000;2023-04-21T09:10:57;66.80;;;57.20;;
38994;SDS011;24769;18.712;99.000;2023-04-21T09:13:29;69.00;;;59.60;;
38994;SDS011;24769;18.712;99.000;2023-04-21T09:16:00;70.40;;;63.20;;
38994;SDS011;24769;18.712;99.000;2023-04-21T09:18:40;66.80;;;57.40;;
38994;SDS011;24769;18.712;99.000;2023-04-21T09:23:49;70.20;;;63.20;;
38994;SDS011;24769;18.712;99.000;2023-04-21T09:26:17;69.20;;;61.60;;
38994;SDS011;24769;18.712;99.000;2023-04-21T09:28:45;67.80;;;59.40;;
38994;SDS011;24769;18.712;99.000;2023-04-21T09:31:13;65.20;;;56.00;;
38994;SDS011;24769;18.712;99.000;2023-04-21T09:33:59;69.80;;;62.20;;
38994;SDS011;24769;18.712;99.000;2023-04-21T09:36:26;66.60;;;57.60;;
38994;SDS011;24769;18.712;99.000;2023-04-21T09:38:59;68.00;;;60.20;;
38994;SDS011;24769;18.712;99.000;2023-04-21T09:41:27;67.60;;;59.80;;
38994;SDS011;24769;18.712;99.000;2023-04-21T09:43:54;68.80;;;61.40;;
38994;SDS011;24769;18.712;99.000;2023-04-21T09:46:25;69.20;;;62.40;;
38994;SDS011;24769;18.712;99.000;2023-04-21T09:48:55;71.00;;;64.00;;
38994;SDS011;24769;18.712;99.000;2023-04-21T09:51:24;66.20;;;57.40;;
38994;SDS011;24769;18.712;99.000;2023-04-21T09:53:52;69.80;;;62.60;;
38994;SDS011;24769;18.712;99.000;2023-04-21T09:56:25;68.20;;;60.20;;
38994;SDS011;24769;18.712;99.000;2023-04-21T09:58:57;69.40;;;61.60;;
38994;SDS011;24769;18.712;99.000;2023-04-21T10:01:30;67.40;;;57.80;;
38994;SDS011;24769;18.712;99.000;2023-04-21T10:03:59;69.40;;;61.40;;
38994;SDS011;24769;18.712;99.000;2023-04-21T10:06:27;70.60;;;63.20;;
38994;SDS011;24769;18.712;99.000;2023-04-21T10:08:53;72.00;;;66.60;;
38994;SDS011;24769;18.712;99.000;2023-04-21T10:11:22;69.60;;;61.80;;
38994;SDS011;24769;18.712;99.000;2023-04-21T10:13:49;69.60;;;61.60;;
38994;SDS011;24769;18.712;99.000;2023-04-21T10:16:16;68.80;;;59.80;;
38994;SDS011;24769;18.712;99.000;2023-04-21T10:18:44;72.20;;;67.00;;
38994;SDS011;24769;18.712;99.000;2023-04-21T10:21:11;72.40;;;66.40;;
38994;SDS011;24769;18.712;99.000;2023-04-21T10:23:44;71.00;;;64.00;;
38994;SDS011;24769;18.712;99.000;2023-04-21T10:26:22;71.40;;;64.20;;
38994;SDS011;24769;18.712;99.000;2023-04-21T10:39:20;73.80;;;69.00;;
38994;SDS011;24769;18.712;99.000;2023-04-21T10:41:50;74.20;;;69.20;;
38994;SDS011;24769;18.712;99.000;2023-04-21T10:44:20;73.60;;;68.40;;
38994;SDS011;24769;18.712;99.000;2023-04-21T10:46:48;74.40;;;70.40;;
38994;SDS011;24769;18.712;99.000;2023-04-21T10:56:52;69.60;;;60.20;;
38994;SDS011;24769;18.712;99.000;2023-04-21T10:59:19;67.40;;;58.40;;
38994;SDS011;24769;18.712;99.000;2023-04-21T11:01:46;65.20;;;54.60;;
38994;SDS011;24769;18.712;99.000;2023-04-21T11:04:13;66.00;;;54.40;;
38994;SDS011;24769;18.712;99.000;2023-04-21T11:06:40;65.80;;;55.40;;
38994;SDS011;24769;18.712;99.000;2023-04-21T11:09:07;66.60;;;57.00;;
38994;SDS011;24769;18.712;99.000;2023-04-21T11:11:34;68.00;;;58.60;;
38994;SDS011;24769;18.712;99.000;2023-04-21T11:14:01;63.20;;;52.20;;
38994;SDS011;24769;18.712;99.000;2023-04-21T11:16:28;65.20;;;54.60;;
38994;SDS011;24769;18.712;99.000;2023-04-21T11:18:55;67.00;;;57.60;;
38994;SDS011;24769;18.712;99.000;2023-04-21T11:21:22;67.40;;;57.60;;
38994;SDS011;24769;18.712;99.000;2023-04-21T11:26:28;67.40;;;58.00;;
38994;SDS011;24769;18.712;99.000;2023-04-21T11:29:00;67.80;;;56.80;;
38994;SDS011;24769;18.712;99.000;2023-04-21T11:31:30;65.00;;;53.60;;
38994;SDS011;24769;18.712;99.000;2023-04-21T11:33:59;66.80;;;57.20;;
38994;SDS011;24769;18.712;99.000;2023-04-21T11:36:31;66.60;;;56.60;;
38994;SDS011;24769;18.712;99.000;2023-04-21T11:39:05;68.40;;;59.20;;
38994;SDS011;24769;18.712;99.000;2023-04-21T11:41:39;66.40;;;56.80;;
38994;SDS011;24769;18.712;99.000;2023-04-21T11:44:07;65.80;;;55.60;;
38994;SDS011;24769;18.712;99.000;2023-04-21T11:46:34;64.40;;;53.20;;
38994;SDS011;24769;18.712;99.000;2023-04-21T11:49:09;63.40;;;52.40;;
38994;SDS011;24769;18.712;99.000;2023-04-21T11:51:37;62.60;;;52.00;;
38994;SDS011;24769;18.712;99.000;2023-04-21T11:54:06;63.40;;;51.80;;
38994;SDS011;24769;18.712;99.000;2023-04-21T11:56:35;60.60;;;49.80;;
38994;SDS011;24769;18.712;99.000;2023-04-21T11:59:15;62.20;;;51.00;;
38994;SDS011;24769;18.712;99.000;2023-04-21T12:01:50;61.20;;;50.40;;
38994;SDS011;24769;18.712;99.000;2023-04-21T12:04:19;62.40;;;51.60;;
38994;SDS011;24769;18.712;99.000;2023-04-21T12:07:00;56.00;;;46.60;;
38994;SDS011;24769;18.712;99.000;2023-04-21T12:09:27;58.40;;;48.60;;
38994;SDS011;24769;18.712;99.000;2023-04-21T12:11:55;54.40;;;45.60;;
38994;SDS011;24769;18.712;99.000;2023-04-21T12:14:23;59.40;;;49.20;;
38994;SDS011;24769;18.712;99.000;2023-04-21T12:16:54;54.60;;;45.80;;
38994;SDS011;24769;18.712;99.000;2023-04-21T12:19:22;55.60;;;46.60;;
38994;SDS011;24769;18.712;99.000;2023-04-21T12:22:10;56.20;;;46.80;;
38994;SDS011;24769;18.712;99.000;2023-04-21T12:24:42;49.80;;;42.80;;
38994;SDS011;24769;18.712;99.000;2023-04-21T12:27:10;57.80;;;47.80;;
38994;SDS011;24769;18.712;99.000;2023-04-21T12:29:37;55.20;;;46.20;;
38994;SDS011;24769;18.712;99.000;2023-04-21T12:32:04;51.80;;;44.00;;
38994;SDS011;24769;18.712;99.000;2023-04-21T12:34:31;50.80;;;43.40;;
38994;SDS011;24769;18.712;99.000;2023-04-21T12:36:58;55.40;;;45.40;;
38994;SDS011;24769;18.712;99.000;2023-04-21T12:39:25;54.20;;;45.60;;
38994;SDS011;24769;18.712;99.000;2023-04-21T12:41:51;55.00;;;46.00;;
38994;SDS011;24769;18.712;99.000;2023-04-21T12:44:18;52.40;;;44.40;;
38994;SDS011;24769;18.712;99.000;2023-04-21T12:46:45;55.20;;;46.20;;
38994;SDS011;24769;18.712;99.000;2023-04-21T12:49:13;50.60;;;43.40;;
38994;SDS011;24769;18.712;99.000;2023-04-21T12:51:41;55.60;;;46.60;;
38994;SDS011;24769;18.712;99.000;2023-04-21T12:54:09;55.40;;;46.40;;
38994;SDS011;24769;18.712;99.000;2023-04-21T12:56:38;53.80;;;45.60;;
38994;SDS011;24769;18.712;99.000;2023-04-21T12:59:06;52.00;;;44.20;;
38994;SDS011;24769;18.712;99.000;2023-04-21T13:01:37;53.20;;;45.20;;
38994;SDS011;24769;18.712;99.000;2023-04-21T13:04:05;53.80;;;45.60;;
38994;SDS011;24769;18.712;99.000;2023-04-21T13:06:32;52.00;;;44.00;;
38994;SDS011;24769;18.712;99.000;2023-04-21T13:08:59;56.20;;;47.00;;
38994;SDS011;24769;18.712;99.000;2023-04-21T13:11:26;52.00;;;44.00;;
38994;SDS011;24769;18.712;99.000;2023-04-21T13:13:52;53.60;;;45.40;;
38994;SDS011;24769;18.712;99.000;2023-04-21T13:16:19;51.40;;;43.40;;
38994;SDS011;24769;18.712;99.000;2023-04-21T13:18:45;52.40;;;44.60;;
38994;SDS011;24769;18.712;99.000;2023-04-21T13:21:12;53.40;;;45.40;;
38994;SDS011;24769;18.712;99.000;2023-04-21T13:23:39;45.80;;;39.60;;
38994;SDS011;24769;18.712;99.000;2023-04-21T13:26:06;54.20;;;45.20;;
38994;SDS011;24769;18.712;99.000;2023-04-21T13:28:33;50.00;;;43.00;;
38994;SDS011;24769;18.712;99.000;2023-04-21T13:31:00;54.60;;;45.40;;
38994;SDS011;24769;18.712;99.000;2023-04-21T13:33:27;51.60;;;44.00;;
38994;SDS011;24769;18.712;99.000;2023-04-21T13:35:54;51.20;;;43.20;;
38994;SDS011;24769;18.712;99.000;2023-04-21T13:38:20;51.80;;;44.00;;
38994;SDS011;24769;18.712;99.000;2023-04-21T13:40:47;39.00;;;35.20;;
38994;SDS011;24769;18.712;99.000;2023-04-21T13:43:15;51.80;;;44.00;;
38994;SDS011;24769;18.712;99.000;2023-04-21T13:45:41;53.00;;;44.80;;
38994;SDS011;24769;18.712;99.000;2023-04-21T13:48:08;48.00;;;41.40;;
38994;SDS011;24769;18.712;99.000;2023-04-21T13:50:35;50.80;;;43.60;;
38994;SDS011;24769;18.712;99.000;2023-04-21T13:53:01;55.60;;;46.60;;
38994;SDS011;24769;18.712;99.000;2023-04-21T13:55:28;53.80;;;45.60;;
38994;SDS011;24769;18.712;99.000;2023-04-21T13:57:55;54.00;;;45.60;;
38994;SDS011;24769;18.712;99.000;2023-04-21T14:00:25;55.80;;;46.80;;
38994;SDS011;24769;18.712;99.000;2023-04-21T14:02:52;55.40;;;46.40;;
38994;SDS011;24769;18.712;99.000;2023-04-21T14:05:20;55.40;;;46.40;;
38994;SDS011;24769;18.712;99.000;2023-04-21T14:07:46;57.40;;;48.20;;
38994;SDS011;24769;18.712;99.000;2023-04-21T14:10:13;52.20;;;44.00;;
38994;SDS011;24769;18.712;99.000;2023-04-21T14:12:39;54.00;;;45.80;;
38994;SDS011;24769;18.712;99.000;2023-04-21T14:15:08;51.00;;;43.80;;
38994;SDS011;24769;18.712;99.000;2023-04-21T14:17:36;52.80;;;44.80;;
38994;SDS011;24769;18.712;99.000;2023-04-21T14:20:03;53.60;;;45.20;;
38994;SDS011;24769;18.712;99.000;2023-04-21T14:22:31;56.20;;;47.20;;
38994;SDS011;24769;18.712;99.000;2023-04-21T14:24:58;53.40;;;45.40;;
38994;SDS011;24769;18.712;99.000;2023-04-21T14:27:24;54.40;;;46.00;;
38994;SDS011;24769;18.712;99.000;2023-04-21T14:29:51;56.80;;;47.80;;
38994;SDS011;24769;18.712;99.000;2023-04-21T14:32:17;55.00;;;45.80;;